createdAt,value
2018-04-12T00:02:12.596Z,20.21
2018-04-12T00:04:38.401Z,20.32
2018-04-12T00:07:04.208Z,20.37
2018-04-12T00:09:30.049Z,20.40
2018-04-12T00:11:55.852Z,20.31
2018-04-12T00:14:21.660Z,20.31
2018-04-12T00:16:47.465Z,20.22
2018-04-12T00:19:13.272Z,20.24
2018-04-12T00:21:39.081Z,20.31
2018-04-12T00:24:04.894Z,20.24
2018-04-12T00:26:30.737Z,20.18
2018-04-12T00:28:56.545Z,20.11
2018-04-12T00:31:22.353Z,20.13
2018-04-12T00:33:48.333Z,20.08
2018-04-12T00:36:14.148Z,20.17
2018-04-12T00:38:39.961Z,20.10
2018-04-12T00:41:05.766Z,20.11
2018-04-12T00:43:31.569Z,20.05
2018-04-12T00:45:57.406Z,19.93
2018-04-12T00:48:23.225Z,19.95
2018-04-12T00:50:49.045Z,20.02
2018-04-12T00:53:20.944Z,19.93
2018-04-12T00:55:46.817Z,19.90
2018-04-12T00:58:12.624Z,19.88
2018-04-12T01:00:38.432Z,19.86
2018-04-12T01:03:04.238Z,19.84
2018-04-12T01:05:30.073Z,19.86
2018-04-12T01:07:56.020Z,19.93
2018-04-12T01:10:21.865Z,19.86
2018-04-12T01:12:47.665Z,19.89
2018-04-12T01:15:13.485Z,19.91
2018-04-12T01:17:39.292Z,19.86
2018-04-12T01:20:05.112Z,19.95
2018-04-12T01:22:31.072Z,19.93
2018-04-12T01:24:56.877Z,19.93
2018-04-12T01:27:29.593Z,19.86
2018-04-12T01:29:55.400Z,19.96
2018-04-12T01:32:21.208Z,19.87
2018-04-12T01:34:47.008Z,19.90
2018-04-12T01:37:12.809Z,19.87
2018-04-12T01:39:38.620Z,19.86
2018-04-12T01:42:04.436Z,19.87
2018-04-12T01:44:37.025Z,19.85
2018-04-12T01:47:02.864Z,19.80
2018-04-12T01:49:28.673Z,19.79
2018-04-12T01:51:54.513Z,19.76
2018-04-12T01:54:20.369Z,19.72
2018-04-12T01:56:46.172Z,19.67
2018-04-12T01:59:11.978Z,19.76
2018-04-12T02:01:37.789Z,19.66
2018-04-12T02:04:03.602Z,19.68
2018-04-12T02:06:29.414Z,19.68
2018-04-12T02:08:55.257Z,19.79
2018-04-12T02:11:21.081Z,19.75
2018-04-12T02:13:46.912Z,19.78
2018-04-12T02:16:12.726Z,19.74
2018-04-12T02:18:38.557Z,19.80
2018-04-12T02:21:04.381Z,19.83
2018-04-12T02:23:30.217Z,19.81
2018-04-12T02:25:56.029Z,19.79
2018-04-12T02:28:23.353Z,19.77
2018-04-12T02:30:49.165Z,19.74
2018-04-12T02:33:14.973Z,19.71
2018-04-12T02:35:40.813Z,19.76
2018-04-12T02:38:06.639Z,19.81
2018-04-12T02:40:32.449Z,19.77
2018-04-12T02:42:58.253Z,19.78
2018-04-12T02:45:24.065Z,19.74
2018-04-12T02:47:49.875Z,19.77
2018-04-12T02:50:15.813Z,19.75
2018-04-12T02:52:41.623Z,19.77
2018-04-12T02:55:07.429Z,19.71
2018-04-12T02:57:33.237Z,19.82
2018-04-12T02:59:59.040Z,19.75
2018-04-12T03:02:24.849Z,19.73
2018-04-12T03:04:50.656Z,19.70
2018-04-12T03:07:16.462Z,19.83
2018-04-12T03:09:42.264Z,19.75
2018-04-12T03:12:08.085Z,19.77
2018-04-12T03:14:33.900Z,19.75
2018-04-12T03:16:59.704Z,19.75
2018-04-12T03:19:25.514Z,19.66
2018-04-12T03:21:51.368Z,19.76
2018-04-12T03:24:17.174Z,19.78
2018-04-12T03:26:43.012Z,19.79
2018-04-12T03:29:08.836Z,19.77
2018-04-12T03:31:34.653Z,19.70
2018-04-12T03:34:00.457Z,19.71
2018-04-12T03:36:26.265Z,19.70
2018-04-12T03:38:52.073Z,19.70
2018-04-12T03:41:17.896Z,19.73
2018-04-12T03:43:43.707Z,19.68
2018-04-12T03:46:09.512Z,19.75
2018-04-12T03:48:35.351Z,19.69
2018-04-12T03:51:01.209Z,19.68
2018-04-12T03:53:27.037Z,19.69
2018-04-12T03:55:52.875Z,19.62
2018-04-12T03:58:18.677Z,19.59
2018-04-12T04:00:44.504Z,19.60
2018-04-12T04:03:10.320Z,19.73
2018-04-12T04:05:36.918Z,19.75
2018-04-12T04:08:02.725Z,19.65
2018-04-12T04:10:28.532Z,19.71
2018-04-12T04:12:54.378Z,19.70
2018-04-12T04:15:26.265Z,19.70
2018-04-12T04:17:58.185Z,19.65
2018-04-12T04:20:30.153Z,19.68
2018-04-12T04:22:55.961Z,19.75
2018-04-12T04:25:21.802Z,19.66
2018-04-12T04:27:54.516Z,19.66
2018-04-12T04:30:20.360Z,19.64
2018-04-12T04:32:46.169Z,19.70
2018-04-12T04:35:11.980Z,19.70
2018-04-12T04:37:38.604Z,19.70
2018-04-12T04:40:04.416Z,19.62
2018-04-12T04:42:30.228Z,19.71
2018-04-12T04:44:56.083Z,19.65
2018-04-12T04:47:21.937Z,19.60
2018-04-12T04:49:47.745Z,19.68
2018-04-12T04:52:13.606Z,19.56
2018-04-12T04:54:39.409Z,19.58
2018-04-12T04:57:05.229Z,19.73
2018-04-12T04:59:31.037Z,19.65
2018-04-12T05:01:56.860Z,19.64
2018-04-12T05:04:22.665Z,19.62
2018-04-12T05:06:48.499Z,19.68
2018-04-12T05:09:14.329Z,19.62
2018-04-12T05:11:40.133Z,19.63
2018-04-12T05:14:05.968Z,19.68
2018-04-12T05:16:31.774Z,19.84
2018-04-12T05:18:57.604Z,19.87
2018-04-12T05:21:23.441Z,19.86
2018-04-12T05:23:49.267Z,19.79
2018-04-12T05:26:15.097Z,19.78
2018-04-12T05:28:40.903Z,19.79
2018-04-12T05:31:06.743Z,19.69
2018-04-12T05:33:32.548Z,19.74
2018-04-12T05:35:58.450Z,19.64
2018-04-12T05:38:24.479Z,19.74
2018-04-12T05:40:50.333Z,19.74
2018-04-12T05:43:16.264Z,19.71
2018-04-12T05:45:42.073Z,19.71
2018-04-12T05:48:07.881Z,19.72
2018-04-12T05:50:33.692Z,19.71
2018-04-12T05:52:59.541Z,19.71
2018-04-12T05:55:25.388Z,19.67
2018-04-12T05:57:51.341Z,19.75
2018-04-12T06:00:17.157Z,19.74
2018-04-12T06:02:42.960Z,19.69
2018-04-12T06:05:08.768Z,19.67
2018-04-12T06:07:34.580Z,19.76
2018-04-12T06:10:00.385Z,19.70
2018-04-12T06:12:26.197Z,19.73
2018-04-12T06:14:52.004Z,19.81
2018-04-12T06:17:17.817Z,19.80
2018-04-12T06:19:44.421Z,19.91
2018-04-12T06:22:10.236Z,19.87
2018-04-12T06:24:36.054Z,20.04
2018-04-12T06:27:01.908Z,20.11
2018-04-12T06:29:27.705Z,20.23
2018-04-12T06:31:53.564Z,20.31
2018-04-12T06:34:19.372Z,20.39
2018-04-12T06:36:45.185Z,20.46
2018-04-12T06:39:10.989Z,20.43
2018-04-12T06:41:36.805Z,20.44
2018-04-12T06:44:02.645Z,20.46
2018-04-12T06:46:28.468Z,20.34
2018-04-12T06:48:54.269Z,20.41
2018-04-12T06:51:20.073Z,20.30
2018-04-12T06:53:45.885Z,20.24
2018-04-12T06:56:11.704Z,20.15
2018-04-12T06:58:37.512Z,20.28
2018-04-12T07:01:03.322Z,20.27
2018-04-12T07:03:29.168Z,20.19
2018-04-12T07:05:55.171Z,20.23
2018-04-12T07:08:21.067Z,20.27
2018-04-12T07:10:46.882Z,20.21
2018-04-12T07:13:12.733Z,20.18
2018-04-12T07:15:38.543Z,20.19
2018-04-12T07:18:04.388Z,20.23
2018-04-12T07:20:30.197Z,20.20
2018-04-12T07:22:56.097Z,20.09
2018-04-12T07:25:21.906Z,20.15
2018-04-12T07:27:47.725Z,20.08
2018-04-12T07:30:13.951Z,20.17
2018-04-12T07:32:39.821Z,20.12
2018-04-12T07:35:05.649Z,20.22
2018-04-12T07:37:31.556Z,20.17
2018-04-12T07:39:57.405Z,20.14
2018-04-12T07:42:23.277Z,20.14
2018-04-12T07:44:49.125Z,20.20
2018-04-12T07:47:14.973Z,20.20
2018-04-12T07:49:40.824Z,20.17
2018-04-12T07:52:07.632Z,20.19
2018-04-12T07:54:33.470Z,20.13
2018-04-12T07:56:59.278Z,20.13
2018-04-12T07:59:25.126Z,20.10
2018-04-12T08:01:50.974Z,20.15
2018-04-12T08:04:16.809Z,20.26
2018-04-12T08:06:42.668Z,20.39
2018-04-12T08:09:08.486Z,20.51
2018-04-12T08:11:34.323Z,20.55
2018-04-12T08:14:00.137Z,20.61
2018-04-12T08:16:26.001Z,20.52
2018-04-12T08:18:51.806Z,20.56
2018-04-12T08:21:17.653Z,20.56
2018-04-12T08:23:43.493Z,20.55
2018-04-12T08:26:09.333Z,20.48
2018-04-12T08:28:35.134Z,20.50
2018-04-12T08:31:00.943Z,20.45
2018-04-12T08:33:26.780Z,20.52
2018-04-12T08:35:52.594Z,20.46
2018-04-12T08:38:18.461Z,20.52
2018-04-12T08:40:44.264Z,20.49
2018-04-12T08:43:10.096Z,20.45
2018-04-12T08:45:36.725Z,20.37
2018-04-12T08:48:02.563Z,20.40
2018-04-12T08:50:28.370Z,20.45
2018-04-12T08:52:54.183Z,20.45
2018-04-12T08:55:19.996Z,20.47
2018-04-12T08:57:45.809Z,20.44
2018-04-12T09:00:11.618Z,20.38
2018-04-12T09:02:37.429Z,20.39
2018-04-12T09:05:03.265Z,20.40
2018-04-12T09:07:29.077Z,20.44
2018-04-12T09:09:54.929Z,20.45
2018-04-12T09:12:20.745Z,20.40
2018-04-12T09:14:46.545Z,20.45
2018-04-12T09:17:12.385Z,20.42
2018-04-12T09:19:38.197Z,20.38
2018-04-12T09:22:04.015Z,20.42
2018-04-12T09:24:29.839Z,20.32
2018-04-12T09:26:55.681Z,20.42
2018-04-12T09:29:21.485Z,20.39
2018-04-12T09:31:47.337Z,20.32
2018-04-12T09:34:13.144Z,20.44
2018-04-12T09:36:38.994Z,20.40
2018-04-12T09:39:04.817Z,20.35
2018-04-12T09:41:30.633Z,20.36
2018-04-12T09:43:56.440Z,20.38
2018-04-12T09:46:22.273Z,20.33
2018-04-12T09:48:48.093Z,20.37
2018-04-12T09:51:13.941Z,20.34
2018-04-12T09:53:39.753Z,20.37
2018-04-12T09:56:05.581Z,20.39
2018-04-12T09:58:31.397Z,20.38
2018-04-12T10:00:57.255Z,20.38
2018-04-12T10:03:23.077Z,20.35
2018-04-12T10:05:55.053Z,20.28
2018-04-12T10:08:27.946Z,20.36
2018-04-12T10:10:53.757Z,20.33
2018-04-12T10:13:19.580Z,20.32
2018-04-12T10:15:45.388Z,20.31
2018-04-12T10:18:11.195Z,20.29
2018-04-12T10:20:37.002Z,20.31
2018-04-12T10:23:02.813Z,20.35
2018-04-12T10:25:28.632Z,20.31
2018-04-12T10:27:54.473Z,20.27
2018-04-12T10:30:20.285Z,20.30
2018-04-12T10:32:46.102Z,20.30
2018-04-12T10:35:11.926Z,20.35
2018-04-12T10:37:37.740Z,20.37
2018-04-12T10:40:03.552Z,20.27
2018-04-12T10:42:29.355Z,20.24
2018-04-12T10:44:55.181Z,20.31
2018-04-12T10:47:20.985Z,20.26
2018-04-12T10:49:46.797Z,20.30
2018-04-12T10:52:19.433Z,20.29
2018-04-12T10:54:45.245Z,20.28
2018-04-12T10:57:11.069Z,20.27
2018-04-12T10:59:36.921Z,20.26
2018-04-12T11:02:02.757Z,20.27
2018-04-12T11:04:28.613Z,20.28
2018-04-12T11:06:54.416Z,20.27
2018-04-12T11:09:20.252Z,20.26
2018-04-12T11:11:46.084Z,20.33
2018-04-12T11:14:11.919Z,20.27
2018-04-12T11:16:37.728Z,20.25
2018-04-12T11:19:03.565Z,20.25
2018-04-12T11:21:29.392Z,20.21
2018-04-12T11:23:56.109Z,20.30
2018-04-12T11:26:21.918Z,20.27
2018-04-12T11:28:54.561Z,20.28
2018-04-12T11:31:20.373Z,20.23
2018-04-12T11:33:46.226Z,20.32
2018-04-12T11:36:12.037Z,20.34
2018-04-12T11:38:37.900Z,20.38
2018-04-12T11:41:03.749Z,20.37
2018-04-12T11:43:29.556Z,20.33
2018-04-12T11:45:55.397Z,20.35
2018-04-12T11:48:21.204Z,20.31
2018-04-12T11:50:47.056Z,20.43
2018-04-12T11:53:12.869Z,20.47
2018-04-12T11:55:38.688Z,20.45
2018-04-12T11:58:04.533Z,20.44
2018-04-12T12:00:30.346Z,20.41
2018-04-12T12:02:56.157Z,20.46
2018-04-12T12:05:21.957Z,20.43
2018-04-12T12:07:47.760Z,20.42
2018-04-12T12:10:13.593Z,20.49
2018-04-12T12:12:39.417Z,20.45
2018-04-12T12:15:05.228Z,20.43
2018-04-12T12:17:31.045Z,20.46
2018-04-12T12:19:56.860Z,20.35
2018-04-12T12:22:22.674Z,20.38
2018-04-12T12:24:48.501Z,20.33
2018-04-12T12:27:14.317Z,20.39
2018-04-12T12:29:40.121Z,20.39
2018-04-12T12:32:05.925Z,20.44
2018-04-12T12:34:31.741Z,20.46
2018-04-12T12:36:57.585Z,20.43
2018-04-12T12:39:23.420Z,20.47
2018-04-12T12:41:49.257Z,20.38
2018-04-12T12:44:15.926Z,20.48
2018-04-12T12:46:41.773Z,20.45
2018-04-12T12:49:07.577Z,20.44
2018-04-12T12:51:33.416Z,20.38
2018-04-12T12:53:59.221Z,20.47
2018-04-12T12:56:25.057Z,20.46
2018-04-12T12:58:50.893Z,20.46
2018-04-12T13:01:16.720Z,20.42
2018-04-12T13:03:42.564Z,20.46
2018-04-12T13:06:08.401Z,20.40
2018-04-12T13:08:34.244Z,20.45
2018-04-12T13:11:00.053Z,20.40
2018-04-12T13:13:25.932Z,20.45
2018-04-12T13:15:51.741Z,20.44
2018-04-12T13:18:17.559Z,20.41
2018-04-12T13:20:43.374Z,20.40
2018-04-12T13:23:09.178Z,20.42
2018-04-12T13:25:34.989Z,20.41
2018-04-12T13:28:00.817Z,20.38
2018-04-12T13:30:26.646Z,20.43
2018-04-12T13:32:52.493Z,20.37
2018-04-12T13:35:18.296Z,20.35
2018-04-12T13:37:44.103Z,20.38
2018-04-12T13:40:09.909Z,20.34
2018-04-12T13:42:35.764Z,20.45
2018-04-12T13:45:01.606Z,20.37
2018-04-12T13:47:27.432Z,20.41
2018-04-12T13:49:53.260Z,20.40
2018-04-12T13:52:22.009Z,20.44
2018-04-12T13:54:47.818Z,20.40
2018-04-12T13:57:13.631Z,20.42
2018-04-12T13:59:39.447Z,20.46
2018-04-12T14:02:05.261Z,20.39
2018-04-12T14:04:31.065Z,20.37
2018-04-12T14:06:56.880Z,20.38
2018-04-12T14:09:22.699Z,20.36
2018-04-12T14:11:48.514Z,20.37
2018-04-12T14:14:14.320Z,20.37
2018-04-12T14:16:40.128Z,20.39
2018-04-12T14:19:05.937Z,20.43
2018-04-12T14:21:31.758Z,20.43
2018-04-12T14:23:57.573Z,20.37
2018-04-12T14:26:23.389Z,20.31
2018-04-12T14:28:49.225Z,20.42
2018-04-12T14:31:15.032Z,20.34
2018-04-12T14:33:40.836Z,20.38
2018-04-12T14:36:06.669Z,20.36
2018-04-12T14:38:32.516Z,20.37
2018-04-12T14:40:58.322Z,20.36
2018-04-12T14:43:24.165Z,20.37
2018-04-12T14:45:49.969Z,20.34
2018-04-12T14:48:15.785Z,20.30
2018-04-12T14:50:41.600Z,20.30
2018-04-12T14:53:07.405Z,20.33
2018-04-12T14:55:33.221Z,20.34
2018-04-12T14:57:59.050Z,20.32
2018-04-12T15:00:24.888Z,20.31
2018-04-12T15:02:50.700Z,20.33
2018-04-12T15:05:16.552Z,20.36
2018-04-12T15:07:42.361Z,20.33
2018-04-12T15:10:08.168Z,20.33
2018-04-12T15:12:33.973Z,20.33
2018-04-12T15:14:59.805Z,20.33
2018-04-12T15:17:25.617Z,20.31
2018-04-12T15:19:51.461Z,20.35
2018-04-12T15:22:17.283Z,20.33
2018-04-12T15:24:43.132Z,20.30
2018-04-12T15:27:08.944Z,20.34
2018-04-12T15:29:34.779Z,20.35
2018-04-12T15:32:00.639Z,20.34
2018-04-12T15:34:26.449Z,20.37
2018-04-12T15:36:52.269Z,20.35
2018-04-12T15:39:18.106Z,20.38
2018-04-12T15:41:43.960Z,20.42
2018-04-12T15:44:09.770Z,20.39
2018-04-12T15:46:35.595Z,20.37
2018-04-12T15:49:01.414Z,20.43
2018-04-12T15:51:27.264Z,20.46
2018-04-12T15:53:53.121Z,20.45
2018-04-12T15:56:18.932Z,20.43
2018-04-12T15:58:44.787Z,20.45
2018-04-12T16:01:10.612Z,20.39
2018-04-12T16:03:36.458Z,20.42
2018-04-12T16:06:02.272Z,20.43
2018-04-12T16:08:28.081Z,20.42
2018-04-12T16:10:53.889Z,20.44
2018-04-12T16:13:19.696Z,20.38
2018-04-12T16:15:46.361Z,20.51
2018-04-12T16:18:12.173Z,20.38
2018-04-12T16:20:37.983Z,20.43
2018-04-12T16:23:03.792Z,20.47
2018-04-12T16:25:29.628Z,20.45
2018-04-12T16:27:55.464Z,20.46
2018-04-12T16:30:21.283Z,20.43
2018-04-12T16:32:47.133Z,20.41
2018-04-12T16:35:12.948Z,20.40
2018-04-12T16:37:38.798Z,20.36
2018-04-12T16:40:04.608Z,20.38
2018-04-12T16:42:30.426Z,20.37
2018-04-12T16:44:56.253Z,20.38
2018-04-12T16:47:22.077Z,20.37
2018-04-12T16:49:47.937Z,20.31
2018-04-12T16:52:13.768Z,20.35
2018-04-12T16:54:39.582Z,20.36
2018-04-12T16:57:05.425Z,20.30
2018-04-12T16:59:31.248Z,20.34
2018-04-12T17:01:57.120Z,20.32
2018-04-12T17:04:22.938Z,20.35
2018-04-12T17:06:48.755Z,20.32
2018-04-12T17:09:14.560Z,20.32
2018-04-12T17:11:40.384Z,20.33
2018-04-12T17:14:06.221Z,20.33
2018-04-12T17:16:32.061Z,20.30
2018-04-12T17:18:57.875Z,20.26
2018-04-12T17:21:23.702Z,20.26
2018-04-12T17:23:49.544Z,20.25
2018-04-12T17:26:15.361Z,20.26
2018-04-12T17:28:41.186Z,20.24
2018-04-12T17:31:07.008Z,20.26
2018-04-12T17:33:32.829Z,20.20
2018-04-12T17:35:58.649Z,20.20
2018-04-12T17:38:24.485Z,20.19
2018-04-12T17:40:50.293Z,20.16
2018-04-12T17:43:16.117Z,20.22
2018-04-12T17:45:41.953Z,20.23
2018-04-12T17:48:07.841Z,20.43
2018-04-12T17:50:33.681Z,20.58
2018-04-12T17:52:59.520Z,20.68
2018-04-12T17:55:25.332Z,20.75
2018-04-12T17:57:51.154Z,20.79
2018-04-12T18:00:17.008Z,20.83
2018-04-12T18:02:42.820Z,20.85
2018-04-12T18:05:08.640Z,20.86
2018-04-12T18:07:34.450Z,20.83
2018-04-12T18:10:00.306Z,20.83
2018-04-12T18:12:26.124Z,20.81
2018-04-12T18:14:51.939Z,20.78
2018-04-12T18:17:17.756Z,20.83
2018-04-12T18:19:43.575Z,20.81
2018-04-12T18:22:09.417Z,20.82
2018-04-12T18:24:35.230Z,20.78
2018-04-12T18:27:01.078Z,20.80
2018-04-12T18:29:26.893Z,20.74
2018-04-12T18:31:52.757Z,20.76
2018-04-12T18:34:18.573Z,20.76
2018-04-12T18:36:44.432Z,20.71
2018-04-12T18:39:10.253Z,20.71
2018-04-12T18:41:36.098Z,20.68
2018-04-12T18:44:01.914Z,20.65
2018-04-12T18:46:27.753Z,20.69
2018-04-12T18:48:53.573Z,20.66
2018-04-12T18:51:19.393Z,20.63
2018-04-12T18:53:45.245Z,20.65
2018-04-12T18:56:11.058Z,20.66
2018-04-12T18:58:36.867Z,20.67
2018-04-12T19:01:02.688Z,20.63
2018-04-12T19:03:28.501Z,20.65
2018-04-12T19:05:55.214Z,20.64
2018-04-12T19:08:21.029Z,20.65
2018-04-12T19:10:46.854Z,20.53
2018-04-12T19:13:12.693Z,20.63
2018-04-12T19:15:38.506Z,20.60
2018-04-12T19:18:04.867Z,20.59
2018-04-12T19:20:31.136Z,20.59
2018-04-12T19:22:57.434Z,20.59
2018-04-12T19:25:23.517Z,20.59
2018-04-12T19:27:50.400Z,20.54
2018-04-12T19:30:17.950Z,20.61
2018-04-12T19:32:43.795Z,20.54
2018-04-12T19:35:10.952Z,20.55
2018-04-12T19:37:37.922Z,20.54
2018-04-12T19:40:05.323Z,20.55
2018-04-12T19:42:31.675Z,20.58
2018-04-12T19:44:58.337Z,20.55
2018-04-12T19:47:25.558Z,20.54
2018-04-12T19:49:52.767Z,20.56
2018-04-12T19:52:20.017Z,20.52
2018-04-12T19:54:46.379Z,20.53
2018-04-12T19:57:13.089Z,20.55
2018-04-12T19:59:40.372Z,20.47
2018-04-12T20:02:07.183Z,20.52
2018-04-12T20:04:33.548Z,20.51
2018-04-12T20:06:59.858Z,20.49
2018-04-12T20:09:27.426Z,20.47
2018-04-12T20:11:53.774Z,20.51
2018-04-12T20:14:37.083Z,20.52
2018-04-12T20:17:04.210Z,20.46
2018-04-12T20:19:31.330Z,20.50
2018-04-12T20:21:58.070Z,20.47
2018-04-12T20:24:24.299Z,20.48
2018-04-12T20:26:51.061Z,20.46
2018-04-12T20:29:18.008Z,20.43
2018-04-12T20:31:46.614Z,20.44
2018-04-12T20:34:14.122Z,20.42
2018-04-12T20:36:41.652Z,20.36
2018-04-12T20:39:08.546Z,20.44
2018-04-12T20:41:34.402Z,20.43
2018-04-12T20:44:01.094Z,20.43
2018-04-12T20:46:26.939Z,20.42
2018-04-12T20:48:52.760Z,20.40
2018-04-12T20:51:18.666Z,20.43
2018-04-12T20:53:46.138Z,20.40
2018-04-12T20:56:14.764Z,20.42
2018-04-12T20:58:43.073Z,20.38
2018-04-12T21:01:10.312Z,20.43
2018-04-12T21:03:37.693Z,20.39
2018-04-12T21:06:04.389Z,20.42
2018-04-12T21:08:31.249Z,20.34
2018-04-12T21:10:58.231Z,20.38
2018-04-12T21:13:24.766Z,20.39
2018-04-12T21:15:52.110Z,20.29
2018-04-12T21:18:19.202Z,20.35
2018-04-12T21:20:46.015Z,20.32
2018-04-12T21:23:13.690Z,20.36
2018-04-12T21:25:39.553Z,20.27
2018-04-12T21:28:05.381Z,20.37
2018-04-12T21:30:31.214Z,20.36
2018-04-12T21:32:57.073Z,20.34
2018-04-12T21:35:22.889Z,20.37
2018-04-12T21:37:48.730Z,20.31
2018-04-12T21:40:14.601Z,20.36
2018-04-12T21:42:40.445Z,20.30
2018-04-12T21:45:06.262Z,20.31
2018-04-12T21:47:32.092Z,20.34
2018-04-12T21:49:57.909Z,20.32
2018-04-12T21:52:23.773Z,20.30
2018-04-12T21:54:49.602Z,20.28
2018-04-12T21:57:15.601Z,20.28
2018-04-12T21:59:42.127Z,20.27
2018-04-12T22:02:08.005Z,20.29
2018-04-12T22:04:33.820Z,20.32
2018-04-12T22:06:59.636Z,20.27
2018-04-12T22:09:25.467Z,20.24
2018-04-12T22:11:51.305Z,20.29
2018-04-12T22:14:17.241Z,20.31
2018-04-12T22:16:43.170Z,20.31
2018-04-12T22:19:09.126Z,20.34
2018-04-12T22:21:34.986Z,20.37
2018-04-12T22:24:00.837Z,20.36
2018-04-12T22:26:27.122Z,20.38
2018-04-12T22:28:53.922Z,20.40
2018-04-12T22:31:19.940Z,20.44
2018-04-12T22:33:45.756Z,20.45
2018-04-12T22:36:11.564Z,20.42
2018-04-12T22:38:37.377Z,20.43
2018-04-12T22:41:03.200Z,20.42
2018-04-12T22:43:29.006Z,20.45
2018-04-12T22:45:54.821Z,20.42
2018-04-12T22:48:20.645Z,20.49
2018-04-12T22:50:46.461Z,20.48
2018-04-12T22:53:12.272Z,20.55
2018-04-12T22:55:38.090Z,20.52
2018-04-12T22:58:03.899Z,20.47
2018-04-12T23:00:29.708Z,20.49
2018-04-12T23:02:55.524Z,20.46
2018-04-12T23:05:21.360Z,20.50
2018-04-12T23:07:47.180Z,20.49
2018-04-12T23:10:13.016Z,20.46
2018-04-12T23:12:38.829Z,20.50
2018-04-12T23:15:04.674Z,20.44
2018-04-12T23:17:30.487Z,20.46
2018-04-12T23:19:56.298Z,20.46
2018-04-12T23:22:22.114Z,20.44
2018-04-12T23:24:47.965Z,20.43
2018-04-12T23:27:13.785Z,20.55
2018-04-12T23:29:39.604Z,20.52
2018-04-12T23:32:05.444Z,20.52
2018-04-12T23:34:31.274Z,20.53
2018-04-12T23:36:57.161Z,20.54
2018-04-12T23:39:22.996Z,20.53
2018-04-12T23:41:48.824Z,20.55
2018-04-12T23:44:14.640Z,20.55
2018-04-12T23:46:40.450Z,20.54
2018-04-12T23:49:06.273Z,20.57
2018-04-12T23:51:32.076Z,20.52
2018-04-12T23:53:57.889Z,20.52
2018-04-12T23:56:23.789Z,20.54
2018-04-12T23:58:49.610Z,20.53
